Hunt, Arkansas
Current Conditions -  °F | °C
As of 7:53 AM on Thursday 23 Oct 2014 (Local Time) from KRUE Reporting Station
Clear Clear  
Wind Chill: 50°   Ceiling: Unl
Heat Index: 50°   Visibility: 10mi
Dew Point: 47°   Wind: 5mph
Humidity: 89%   Direction: 230°SW
Pressure: 30.2"   Gusts: NA
Location:  35.4189°N, 93.6161°W
Report Text: KRUE 231253Z AUTO 23004KT 10SM CLR 10/08 A3020 RMK AO2 SLP223 T01000083 $
Loading
Personal Weather Stations






























Interactive Weather Map New forecast layout! Learn more

10-Day Weather Forecast

Advertisements
Track Severe Weather on mobile